createdAt,value
2022-09-03T00:00:04.408Z,5.55
2022-09-03T00:00:37.690Z,5.22
2022-09-03T00:01:13.272Z,6.60
2022-09-03T00:01:54.211Z,6.40
2022-09-03T00:02:41.388Z,6.57
2022-09-03T00:03:17.439Z,5.78
2022-09-03T00:03:55.220Z,5.80
2022-09-03T00:04:49.644Z,5.63
2022-09-03T00:05:37.160Z,5.82
2022-09-03T00:06:16.840Z,4.78
2022-09-03T00:06:56.061Z,5.15
2022-09-03T00:07:35.021Z,5.40
2022-09-03T00:08:10.656Z,6.72
2022-09-03T00:09:01.614Z,4.20
2022-09-03T00:09:35.700Z,5.25
2022-09-03T00:10:12.672Z,4.53
2022-09-03T00:11:03.358Z,5.50
2022-09-03T00:11:52.907Z,6.03
2022-09-03T00:12:29.137Z,5.57
2022-09-03T00:13:02.715Z,4.80
2022-09-03T00:13:36.296Z,4.90
2022-09-03T00:14:26.321Z,6.20
2022-09-03T00:15:01.126Z,6.55
2022-09-03T00:15:33.580Z,6.38
2022-09-03T00:16:06.877Z,5.95
2022-09-03T00:16:47.071Z,5.63
2022-09-03T00:17:21.329Z,4.85
2022-09-03T00:17:57.778Z,6.72
2022-09-03T00:18:31.873Z,4.80
2022-09-03T00:19:03.980Z,5.55
2022-09-03T00:19:39.412Z,6.72
2022-09-03T00:20:13.204Z,6.05
2022-09-03T00:20:50.951Z,6.85
2022-09-03T00:21:28.163Z,5.03
2022-09-03T00:22:21.005Z,6.38
2022-09-03T00:22:53.989Z,5.47
2022-09-03T00:23:27.258Z,4.97
2022-09-03T00:24:00.176Z,4.82
2022-09-03T00:24:35.195Z,6.45
2022-09-03T00:25:08.940Z,5.93
2022-09-03T00:25:45.291Z,5.25
2022-09-03T00:26:19.752Z,5.28
2022-09-03T00:26:53.754Z,5.55
2022-09-03T00:27:26.824Z,5.45
2022-09-03T00:27:58.725Z,4.15
2022-09-03T00:28:35.635Z,4.90
2022-09-03T00:29:12.296Z,5.00
2022-09-03T00:29:47.168Z,5.15
2022-09-03T00:30:18.746Z,5.00
2022-09-03T00:30:52.314Z,5.47
2022-09-03T00:31:33.571Z,5.57
2022-09-03T00:32:11.036Z,5.28
2022-09-03T00:32:47.902Z,5.28
2022-09-03T00:33:22.001Z,5.25
2022-09-03T00:33:56.703Z,4.55
2022-09-03T00:34:39.263Z,4.68
2022-09-03T00:35:20.229Z,5.13
2022-09-03T00:35:54.475Z,5.32
2022-09-03T00:36:31.037Z,5.53
2022-09-03T00:37:02.473Z,5.80
2022-09-03T00:37:38.036Z,5.18
2022-09-03T00:38:09.699Z,4.57
2022-09-03T00:38:41.189Z,4.90
2022-09-03T00:39:13.904Z,5.47
2022-09-03T00:39:45.390Z,4.65
2022-09-03T00:40:22.929Z,5.82
2022-09-03T00:40:54.306Z,4.30
2022-09-03T00:41:40.848Z,5.20
2022-09-03T00:42:23.359Z,4.63
2022-09-03T00:43:12.859Z,4.55
2022-09-03T00:44:02.833Z,5.03
2022-09-03T00:44:49.752Z,4.95
2022-09-03T00:45:21.163Z,5.90
2022-09-03T00:45:59.689Z,5.35
2022-09-03T00:46:38.437Z,5.80
2022-09-03T00:47:12.943Z,5.32
2022-09-03T00:48:03.012Z,4.70
2022-09-03T00:48:45.207Z,5.15
2022-09-03T00:49:28.007Z,5.72
2022-09-03T00:50:04.207Z,4.55
2022-09-03T00:50:44.150Z,5.60
2022-09-03T00:51:27.098Z,5.97
2022-09-03T00:52:01.305Z,4.93
2022-09-03T00:52:44.926Z,6.38
2022-09-03T00:53:28.502Z,4.82
2022-09-03T00:54:05.315Z,4.88
2022-09-03T00:54:42.963Z,4.82
2022-09-03T00:55:34.552Z,3.73
2022-09-03T00:56:25.750Z,4.88
2022-09-03T00:57:03.128Z,5.40
2022-09-03T00:57:47.303Z,5.80
2022-09-03T00:58:19.111Z,5.18
2022-09-03T00:58:56.343Z,5.57
2022-09-03T00:59:42.112Z,4.70
2022-09-03T01:00:16.619Z,4.38
2022-09-03T01:00:49.543Z,4.80
2022-09-03T01:01:36.293Z,4.68
2022-09-03T01:02:26.899Z,4.82
2022-09-03T01:03:16.951Z,3.83
2022-09-03T01:03:48.336Z,4.43
2022-09-03T01:04:25.514Z,5.88
2022-09-03T01:05:10.410Z,5.00
2022-09-03T01:05:48.198Z,4.78
2022-09-03T01:06:27.570Z,4.38
2022-09-03T01:07:10.579Z,5.05
2022-09-03T01:08:02.300Z,5.13
2022-09-03T01:08:49.118Z,6.18
2022-09-03T01:09:26.623Z,4.53
2022-09-03T01:10:00.871Z,5.22
2022-09-03T01:10:48.744Z,5.20
2022-09-03T01:11:22.932Z,3.67
2022-09-03T01:11:54.333Z,4.72
2022-09-03T01:12:32.424Z,4.57
2022-09-03T01:13:03.819Z,4.85
2022-09-03T01:13:41.035Z,4.07
2022-09-03T01:14:31.107Z,6.05
2022-09-03T01:15:15.345Z,4.55
2022-09-03T01:15:46.783Z,3.92
2022-09-03T01:16:36.908Z,4.65
2022-09-03T01:17:08.285Z,4.53
2022-09-03T01:17:55.041Z,4.20
2022-09-03T01:18:35.388Z,4.70
2022-09-03T01:19:15.683Z,4.45
2022-09-03T01:20:03.864Z,4.88
2022-09-03T01:20:44.617Z,3.97
2022-09-03T01:21:33.640Z,4.50
2022-09-03T01:22:23.791Z,4.75
2022-09-03T01:23:01.315Z,4.18
2022-09-03T01:23:47.817Z,3.53
2022-09-03T01:24:28.059Z,3.65
2022-09-03T01:25:11.992Z,5.23
2022-09-03T01:26:05.994Z,4.60
2022-09-03T01:26:40.260Z,5.00
2022-09-03T01:27:11.655Z,4.28
2022-09-03T01:28:01.826Z,5.00
2022-09-03T01:28:36.237Z,4.43
2022-09-03T01:29:07.665Z,4.07
2022-09-03T01:29:51.448Z,4.70
2022-09-03T01:30:22.828Z,4.30
2022-09-03T01:31:01.908Z,4.15
2022-09-03T01:31:40.147Z,5.57
2022-09-03T01:32:11.577Z,5.38
2022-09-03T01:32:53.873Z,5.70
2022-09-03T01:33:32.582Z,4.72
2022-09-03T01:34:06.983Z,4.10
2022-09-03T01:34:44.359Z,5.15
2022-09-03T01:35:15.751Z,4.22
2022-09-03T01:35:48.415Z,3.95
2022-09-03T01:36:24.312Z,4.10
2022-09-03T01:37:05.001Z,3.55
2022-09-03T01:37:36.451Z,4.22
2022-09-03T01:38:24.197Z,5.60
2022-09-03T01:38:57.907Z,3.85
2022-09-03T01:39:32.429Z,4.30
2022-09-03T01:40:21.931Z,4.03
2022-09-03T01:40:56.135Z,4.25
2022-09-03T01:41:36.580Z,3.90
2022-09-03T01:42:22.699Z,5.05
2022-09-03T01:42:56.862Z,4.40
2022-09-03T01:43:46.786Z,4.15
2022-09-03T01:44:18.172Z,5.57
2022-09-03T01:44:52.810Z,4.10
2022-09-03T01:45:33.643Z,4.60
2022-09-03T01:46:09.782Z,3.97
2022-09-03T01:46:41.880Z,4.43
2022-09-03T01:47:19.984Z,5.43
2022-09-03T01:48:08.575Z,5.00
2022-09-03T01:48:49.131Z,4.53
2022-09-03T01:49:23.381Z,3.72
2022-09-03T01:50:00.195Z,4.78
2022-09-03T01:50:34.606Z,4.53
2022-09-03T01:51:14.944Z,3.95
2022-09-03T01:51:46.439Z,5.10
2022-09-03T01:52:21.864Z,4.38
2022-09-03T01:53:03.492Z,4.18
2022-09-03T01:53:41.637Z,5.53
2022-09-03T01:54:31.504Z,4.38
2022-09-03T01:55:21.426Z,4.90
2022-09-03T01:56:22.199Z,6.47
2022-09-03T01:56:56.406Z,4.65
2022-09-03T01:57:35.421Z,3.22
2022-09-03T01:58:08.341Z,4.03
2022-09-03T01:58:42.901Z,4.95
2022-09-03T01:59:14.300Z,4.43
2022-09-03T02:00:01.602Z,4.00
2022-09-03T02:00:34.519Z,4.05
2022-09-03T02:01:13.008Z,3.05
2022-09-03T02:01:53.398Z,3.28
2022-09-03T02:02:26.258Z,4.57
2022-09-03T02:03:01.828Z,4.25
2022-09-03T02:03:35.253Z,3.42
2022-09-03T02:04:18.623Z,3.40
2022-09-03T02:05:07.163Z,4.50
2022-09-03T02:05:38.603Z,3.92
2022-09-03T02:06:10.703Z,3.83
2022-09-03T02:06:42.141Z,4.95
2022-09-03T02:07:13.569Z,4.03
2022-09-03T02:07:46.908Z,5.53
2022-09-03T02:08:18.691Z,4.95
2022-09-03T02:08:50.140Z,5.88
2022-09-03T02:09:21.582Z,5.20
2022-09-03T02:09:53.000Z,4.82
2022-09-03T02:10:32.901Z,5.40
2022-09-03T02:11:06.743Z,5.32
2022-09-03T02:11:38.134Z,4.20
2022-09-03T02:12:14.343Z,4.55
2022-09-03T02:12:49.041Z,5.05
2022-09-03T02:13:26.213Z,5.00
2022-09-03T02:13:57.706Z,4.03
2022-09-03T02:14:29.759Z,4.78
2022-09-03T02:15:02.841Z,3.88
2022-09-03T02:15:35.468Z,3.90
2022-09-03T02:16:11.279Z,5.28
2022-09-03T02:16:42.880Z,4.35
2022-09-03T02:17:14.313Z,6.63
2022-09-03T02:17:47.379Z,3.58
2022-09-03T02:18:22.243Z,4.65
2022-09-03T02:18:59.564Z,4.57
2022-09-03T02:19:31.279Z,3.05
2022-09-03T02:20:07.731Z,3.50
2022-09-03T02:20:39.528Z,4.60
2022-09-03T02:21:11.118Z,4.10
2022-09-03T02:21:52.744Z,3.73
2022-09-03T02:22:24.392Z,4.15
2022-09-03T02:22:57.417Z,3.72
2022-09-03T02:23:29.053Z,3.55
2022-09-03T02:24:00.491Z,4.97
2022-09-03T02:24:32.444Z,5.15
2022-09-03T02:25:04.023Z,4.10
2022-09-03T02:25:41.920Z,4.57
2022-09-03T02:26:15.866Z,5.38
2022-09-03T02:26:47.303Z,4.85
2022-09-03T02:27:19.608Z,4.10
2022-09-03T02:27:51.204Z,4.47
2022-09-03T02:28:22.877Z,5.93
2022-09-03T02:28:54.339Z,5.03
2022-09-03T02:29:25.984Z,5.23
2022-09-03T02:29:59.152Z,4.53
2022-09-03T02:30:30.632Z,5.53
2022-09-03T02:31:02.173Z,4.43
2022-09-03T02:31:33.719Z,5.17
2022-09-03T02:32:05.264Z,5.30
2022-09-03T02:32:36.973Z,3.75
2022-09-03T02:33:08.479Z,5.57
2022-09-03T02:33:42.081Z,4.47
2022-09-03T02:34:13.516Z,5.05
2022-09-03T02:34:44.967Z,5.53
2022-09-03T02:35:16.397Z,4.70
2022-09-03T02:35:47.768Z,5.03
2022-09-03T02:36:27.679Z,5.22
2022-09-03T02:36:59.153Z,4.93
2022-09-03T02:37:30.589Z,4.45
2022-09-03T02:38:15.842Z,4.75
2022-09-03T02:38:47.492Z,6.47
2022-09-03T02:39:18.963Z,5.82
2022-09-03T02:39:50.526Z,4.60
2022-09-03T02:40:22.008Z,5.97
2022-09-03T02:40:53.492Z,5.67
2022-09-03T02:41:24.939Z,5.13
2022-09-03T02:41:57.193Z,6.13
2022-09-03T02:42:28.627Z,5.53
2022-09-03T02:43:00.083Z,4.70
2022-09-03T02:43:40.667Z,6.77
2022-09-03T02:44:24.725Z,4.93
2022-09-03T02:45:00.497Z,4.63
2022-09-03T02:45:31.983Z,4.35
2022-09-03T02:46:04.641Z,4.60
2022-09-03T02:46:38.949Z,4.53
2022-09-03T02:47:10.387Z,5.15
2022-09-03T02:47:43.107Z,5.65
2022-09-03T02:48:16.685Z,4.07
2022-09-03T02:48:48.232Z,4.60
2022-09-03T02:49:19.629Z,4.32
2022-09-03T02:49:51.052Z,5.60
2022-09-03T02:50:22.956Z,5.00
2022-09-03T02:50:54.431Z,4.70
2022-09-03T02:51:25.878Z,5.18
2022-09-03T02:52:03.308Z,7.45
2022-09-03T02:52:34.754Z,4.30
2022-09-03T02:53:06.182Z,4.90
2022-09-03T02:53:37.623Z,5.33
2022-09-03T02:54:09.313Z,5.03
2022-09-03T02:54:40.746Z,4.80
2022-09-03T02:55:12.186Z,5.03
2022-09-03T02:55:43.626Z,4.20
2022-09-03T02:56:15.073Z,4.03
2022-09-03T02:56:46.500Z,5.45
2022-09-03T02:57:22.425Z,6.03
2022-09-03T02:57:59.050Z,5.55
2022-09-03T02:58:30.488Z,5.43
2022-09-03T02:59:02.390Z,4.97
2022-09-03T02:59:34.091Z,5.53
2022-09-03T03:00:05.832Z,5.38
2022-09-03T03:00:37.261Z,4.72
2022-09-03T03:01:08.750Z,4.37
2022-09-03T03:01:40.260Z,5.40
2022-09-03T03:02:13.604Z,4.78
2022-09-03T03:02:45.122Z,5.97
2022-09-03T03:03:16.652Z,5.93
2022-09-03T03:03:48.036Z,4.47
2022-09-03T03:04:19.524Z,4.03
2022-09-03T03:04:50.951Z,3.92
2022-09-03T03:05:26.339Z,3.40
2022-09-03T03:06:02.469Z,4.22
2022-09-03T03:06:33.924Z,4.28
2022-09-03T03:07:06.493Z,5.15
2022-09-03T03:07:39.258Z,4.10
2022-09-03T03:08:11.158Z,3.28
2022-09-03T03:08:42.592Z,4.55
2022-09-03T03:09:13.981Z,4.68
2022-09-03T03:09:45.387Z,5.18
2022-09-03T03:10:16.848Z,3.80
2022-09-03T03:10:48.446Z,7.72
2022-09-03T03:11:19.833Z,3.95
2022-09-03T03:11:51.263Z,4.78
2022-09-03T03:12:22.807Z,4.88
2022-09-03T03:12:54.202Z,5.78
2022-09-03T03:13:26.090Z,6.43
2022-09-03T03:13:57.537Z,3.83
2022-09-03T03:14:28.970Z,3.78
2022-09-03T03:15:00.352Z,3.45
2022-09-03T03:15:34.092Z,4.97
2022-09-03T03:16:05.786Z,5.07
2022-09-03T03:16:37.251Z,6.60
2022-09-03T03:17:08.711Z,4.65
2022-09-03T03:17:40.142Z,4.47
2022-09-03T03:18:11.741Z,3.95
2022-09-03T03:18:43.639Z,4.85
2022-09-03T03:19:15.068Z,4.63
2022-09-03T03:19:46.517Z,3.63
2022-09-03T03:20:17.959Z,4.70
2022-09-03T03:20:49.387Z,3.65
2022-09-03T03:21:20.828Z,4.97
2022-09-03T03:21:52.267Z,4.13
2022-09-03T03:22:23.701Z,3.72
2022-09-03T03:22:55.189Z,5.00
2022-09-03T03:23:27.341Z,3.60
2022-09-03T03:23:58.779Z,4.38
2022-09-03T03:24:30.167Z,3.83
2022-09-03T03:25:01.554Z,4.72
2022-09-03T03:25:33.448Z,3.83
2022-09-03T03:26:09.033Z,4.32
2022-09-03T03:26:40.475Z,3.72
2022-09-03T03:27:11.906Z,6.18
2022-09-03T03:27:43.342Z,6.55
2022-09-03T03:28:14.781Z,4.43
2022-09-03T03:28:49.663Z,3.85
2022-09-03T03:29:21.076Z,4.38
2022-09-03T03:29:52.470Z,4.07
2022-09-03T03:30:23.903Z,4.50
2022-09-03T03:30:55.366Z,3.03
2022-09-03T03:31:27.197Z,3.83
2022-09-03T03:31:58.589Z,3.80
2022-09-03T03:32:30.018Z,3.88
2022-09-03T03:33:01.512Z,4.63
2022-09-03T03:33:33.099Z,4.17
2022-09-03T03:34:04.543Z,4.60
2022-09-03T03:34:35.924Z,3.72
2022-09-03T03:35:07.585Z,3.80
2022-09-03T03:35:39.000Z,2.70
2022-09-03T03:36:12.035Z,3.80
2022-09-03T03:36:43.672Z,3.15
2022-09-03T03:37:15.109Z,3.60
2022-09-03T03:37:46.550Z,4.47
2022-09-03T03:38:17.983Z,3.03
2022-09-03T03:38:49.466Z,3.58
2022-09-03T03:39:20.945Z,4.00
2022-09-03T03:39:52.480Z,3.28
2022-09-03T03:40:24.121Z,3.65
2022-09-03T03:40:55.528Z,3.35
2022-09-03T03:41:31.978Z,3.50
2022-09-03T03:42:03.469Z,4.82
2022-09-03T03:42:34.901Z,3.63
2022-09-03T03:43:06.352Z,3.75
2022-09-03T03:43:37.937Z,4.95
2022-09-03T03:44:09.371Z,4.78
2022-09-03T03:44:40.807Z,3.20
2022-09-03T03:45:12.243Z,6.05
2022-09-03T03:45:43.645Z,4.90
2022-09-03T03:46:15.205Z,4.05
2022-09-03T03:46:46.657Z,3.50
2022-09-03T03:47:18.046Z,4.05
2022-09-03T03:47:49.485Z,3.85
2022-09-03T03:48:20.922Z,3.33
2022-09-03T03:48:52.670Z,3.75
2022-09-03T03:49:24.103Z,4.20
2022-09-03T03:49:55.488Z,3.00
2022-09-03T03:50:26.978Z,3.15
2022-09-03T03:51:02.102Z,3.50
2022-09-03T03:51:33.743Z,3.72
2022-09-03T03:52:05.183Z,3.88
2022-09-03T03:52:36.565Z,3.37
2022-09-03T03:53:07.956Z,3.40
2022-09-03T03:53:39.646Z,3.40
2022-09-03T03:54:11.077Z,4.53
2022-09-03T03:54:45.895Z,4.32
2022-09-03T03:55:17.273Z,3.35
2022-09-03T03:55:55.534Z,3.67
2022-09-03T03:56:27.072Z,4.18
2022-09-03T03:56:58.468Z,4.82
2022-09-03T03:57:30.971Z,3.97
2022-09-03T03:58:02.400Z,4.10
2022-09-03T03:58:34.496Z,4.60
2022-09-03T03:59:05.896Z,3.60
2022-09-03T03:59:37.322Z,3.00
2022-09-03T04:00:09.076Z,3.78
2022-09-03T04:00:40.472Z,4.07
2022-09-03T04:01:14.418Z,4.15
2022-09-03T04:01:45.937Z,2.70
2022-09-03T04:02:17.921Z,3.05
2022-09-03T04:02:49.505Z,5.40
2022-09-03T04:03:21.031Z,5.23
2022-09-03T04:03:55.032Z,4.32
2022-09-03T04:04:28.154Z,3.47
2022-09-03T04:04:59.538Z,4.28
2022-09-03T04:05:31.796Z,3.75
2022-09-03T04:06:05.535Z,3.90
2022-09-03T04:06:36.977Z,4.90
2022-09-03T04:07:08.819Z,5.20
2022-09-03T04:07:40.254Z,4.40
2022-09-03T04:08:11.643Z,4.53
2022-09-03T04:08:43.850Z,3.25
2022-09-03T04:09:17.235Z,5.05
2022-09-03T04:09:48.625Z,4.45
2022-09-03T04:10:20.413Z,3.85
2022-09-03T04:10:51.854Z,4.35
2022-09-03T04:11:23.751Z,4.45
2022-09-03T04:11:55.187Z,3.83
2022-09-03T04:12:27.094Z,4.37
2022-09-03T04:12:58.472Z,4.22
2022-09-03T04:13:33.919Z,5.15
2022-09-03T04:14:05.345Z,3.60
2022-09-03T04:14:36.784Z,3.03
2022-09-03T04:15:08.319Z,2.50
2022-09-03T04:15:39.864Z,3.63
2022-09-03T04:16:12.502Z,3.28
2022-09-03T04:16:44.418Z,3.92
2022-09-03T04:17:15.899Z,4.97
2022-09-03T04:17:47.349Z,3.38
2022-09-03T04:18:18.794Z,4.38
2022-09-03T04:18:50.528Z,3.30
2022-09-03T04:19:21.971Z,3.50
2022-09-03T04:19:53.406Z,2.95
2022-09-03T04:20:24.848Z,3.70
2022-09-03T04:20:59.603Z,3.45
2022-09-03T04:21:31.449Z,3.38
2022-09-03T04:22:02.836Z,3.33
2022-09-03T04:22:34.226Z,3.97
2022-09-03T04:23:05.867Z,5.78
2022-09-03T04:23:38.531Z,3.22
2022-09-03T04:24:10.031Z,4.15
2022-09-03T04:24:41.448Z,3.42
2022-09-03T04:25:12.845Z,4.03
2022-09-03T04:25:44.327Z,3.53
2022-09-03T04:26:17.156Z,5.20
2022-09-03T04:26:48.538Z,5.78
2022-09-03T04:27:19.923Z,7.03
2022-09-03T04:27:51.462Z,4.28
2022-09-03T04:28:25.107Z,6.22
2022-09-03T04:28:56.953Z,5.47
2022-09-03T04:29:29.357Z,6.03
2022-09-03T04:30:00.799Z,4.90
2022-09-03T04:30:33.367Z,5.25
2022-09-03T04:31:06.619Z,5.10
2022-09-03T04:31:39.104Z,4.70
2022-09-03T04:32:11.566Z,3.83
2022-09-03T04:32:42.929Z,3.53
2022-09-03T04:33:16.458Z,2.83
2022-09-03T04:33:47.941Z,4.90
2022-09-03T04:34:19.363Z,4.50
2022-09-03T04:34:50.750Z,2.38
2022-09-03T04:35:22.692Z,2.63
2022-09-03T04:36:01.053Z,2.78
2022-09-03T04:36:32.546Z,4.13
2022-09-03T04:37:03.959Z,4.43
2022-09-03T04:37:35.357Z,3.15
2022-09-03T04:38:06.743Z,3.25
2022-09-03T04:38:41.856Z,3.75
2022-09-03T04:39:13.291Z,2.95
2022-09-03T04:39:44.729Z,3.10
2022-09-03T04:40:16.373Z,2.42
2022-09-03T04:40:53.708Z,4.90
2022-09-03T04:41:26.122Z,3.70
2022-09-03T04:41:59.986Z,3.92
2022-09-03T04:42:31.609Z,3.03
2022-09-03T04:43:03.350Z,3.77
2022-09-03T04:43:34.837Z,3.13
2022-09-03T04:44:06.278Z,3.53
2022-09-03T04:44:37.661Z,2.43
2022-09-03T04:45:09.512Z,3.92
2022-09-03T04:45:40.920Z,2.05
2022-09-03T04:46:16.246Z,3.72
2022-09-03T04:46:49.661Z,2.88
2022-09-03T04:47:21.095Z,3.40
2022-09-03T04:47:56.478Z,3.30
2022-09-03T04:48:28.680Z,2.85
2022-09-03T04:49:00.171Z,2.75
2022-09-03T04:49:31.558Z,2.30
2022-09-03T04:50:03.706Z,3.88
2022-09-03T04:50:35.145Z,4.28
2022-09-03T04:51:08.019Z,3.30
2022-09-03T04:51:39.455Z,2.60
2022-09-03T04:52:11.409Z,2.85
2022-09-03T04:52:42.830Z,3.88
2022-09-03T04:53:14.278Z,4.78
2022-09-03T04:53:46.740Z,4.50
2022-09-03T04:54:18.179Z,3.45
2022-09-03T04:54:49.872Z,4.68
2022-09-03T04:55:21.253Z,3.45
2022-09-03T04:55:52.642Z,4.07
2022-09-03T04:56:25.414Z,3.67
2022-09-03T04:56:57.153Z,2.72
2022-09-03T04:57:28.595Z,3.60
2022-09-03T04:58:00.025Z,2.70
2022-09-03T04:58:31.416Z,3.55
2022-09-03T04:59:07.001Z,3.67
2022-09-03T04:59:38.387Z,2.42
2022-09-03T05:00:10.233Z,3.70
2022-09-03T05:00:41.725Z,3.40
2022-09-03T05:01:16.093Z,2.63
2022-09-03T05:01:47.579Z,2.78
2022-09-03T05:02:19.123Z,3.28
2022-09-03T05:02:50.647Z,2.72
2022-09-03T05:03:22.243Z,3.80
2022-09-03T05:03:55.038Z,4.65
2022-09-03T05:04:26.498Z,3.95
2022-09-03T05:04:57.881Z,3.85
2022-09-03T05:05:29.458Z,4.20
2022-09-03T05:06:00.853Z,3.60
2022-09-03T05:06:33.115Z,4.80
2022-09-03T05:07:04.504Z,2.92
2022-09-03T05:07:35.883Z,3.67
2022-09-03T05:08:07.271Z,2.35
2022-09-03T05:08:39.224Z,2.90
2022-09-03T05:09:10.713Z,3.05
2022-09-03T05:09:42.144Z,2.55
2022-09-03T05:10:14.405Z,2.70
2022-09-03T05:10:45.795Z,2.63
2022-09-03T05:11:17.641Z,4.72
2022-09-03T05:11:49.070Z,3.45
2022-09-03T05:12:20.478Z,3.35
2022-09-03T05:12:58.668Z,3.53
2022-09-03T05:13:30.093Z,4.60
2022-09-03T05:14:01.534Z,2.37
2022-09-03T05:14:32.988Z,3.80
2022-09-03T05:15:05.020Z,3.08
2022-09-03T05:15:36.458Z,2.92
2022-09-03T05:16:09.113Z,3.47
2022-09-03T05:16:40.684Z,3.70
2022-09-03T05:17:12.153Z,4.38
2022-09-03T05:17:43.589Z,4.05
2022-09-03T05:18:15.038Z,4.70
2022-09-03T05:18:47.108Z,3.03
2022-09-03T05:19:18.565Z,4.50
2022-09-03T05:19:49.950Z,2.95
2022-09-03T05:20:21.341Z,2.65
2022-09-03T05:20:59.992Z,4.32
2022-09-03T05:21:31.949Z,2.77
2022-09-03T05:22:03.532Z,4.78
2022-09-03T05:22:35.126Z,2.70
2022-09-03T05:23:06.559Z,3.92
2022-09-03T05:23:39.227Z,2.25
2022-09-03T05:24:10.666Z,3.92
2022-09-03T05:24:42.102Z,4.50
2022-09-03T05:25:13.600Z,3.45
2022-09-03T05:25:54.653Z,3.78
2022-09-03T05:26:27.429Z,2.55
2022-09-03T05:26:58.914Z,2.08
2022-09-03T05:27:31.115Z,4.13
2022-09-03T05:28:02.662Z,4.28
2022-09-03T05:28:34.102Z,4.07
2022-09-03T05:29:06.865Z,4.13
2022-09-03T05:29:38.304Z,3.30
2022-09-03T05:30:10.100Z,3.15
2022-09-03T05:30:41.534Z,3.33
2022-09-03T05:31:14.569Z,2.70
2022-09-03T05:31:46.079Z,2.75
2022-09-03T05:32:17.536Z,3.47
2022-09-03T05:32:49.228Z,2.95
2022-09-03T05:33:20.664Z,3.55
2022-09-03T05:33:53.417Z,3.95
2022-09-03T05:34:24.824Z,3.25
2022-09-03T05:34:56.215Z,4.03
2022-09-03T05:35:30.047Z,2.90
2022-09-03T05:36:03.224Z,2.35
2022-09-03T05:36:35.548Z,3.15
2022-09-03T05:37:06.973Z,4.20
2022-09-03T05:37:38.359Z,2.22
2022-09-03T05:38:09.795Z,3.70
2022-09-03T05:38:41.230Z,3.72
2022-09-03T05:39:12.666Z,3.13
2022-09-03T05:39:44.244Z,3.60
2022-09-03T05:40:15.767Z,2.85
2022-09-03T05:40:47.174Z,2.58
2022-09-03T05:41:19.003Z,5.32
2022-09-03T05:41:50.626Z,4.07
2022-09-03T05:42:22.039Z,2.08
2022-09-03T05:42:56.827Z,2.30
2022-09-03T05:43:28.928Z,2.67
2022-09-03T05:44:00.312Z,1.50
2022-09-03T05:44:31.760Z,2.78
2022-09-03T05:45:03.490Z,2.15
2022-09-03T05:45:34.930Z,3.10
2022-09-03T05:46:07.688Z,2.30
2022-09-03T05:46:39.150Z,1.95
2022-09-03T05:47:10.570Z,2.03
2022-09-03T05:47:42.880Z,2.22
2022-09-03T05:48:14.326Z,3.08
2022-09-03T05:48:45.816Z,5.75
2022-09-03T05:49:17.402Z,4.15
2022-09-03T05:49:48.822Z,2.20
2022-09-03T05:50:20.276Z,1.35
2022-09-03T05:50:58.575Z,3.40
2022-09-03T05:51:30.704Z,4.25
2022-09-03T05:52:02.271Z,2.40
2022-09-03T05:52:33.656Z,2.47
2022-09-03T05:53:05.082Z,2.45
2022-09-03T05:53:37.708Z,2.42
2022-09-03T05:54:10.003Z,1.90
2022-09-03T05:54:41.507Z,2.73
2022-09-03T05:55:13.608Z,3.72
2022-09-03T05:55:54.671Z,2.97
2022-09-03T05:56:27.286Z,3.03
2022-09-03T05:56:58.722Z,4.88
2022-09-03T05:57:30.109Z,1.98
2022-09-03T05:58:01.545Z,1.85
2022-09-03T05:58:33.914Z,3.83
2022-09-03T05:59:06.276Z,2.80
2022-09-03T05:59:37.647Z,5.50
2022-09-03T06:00:09.598Z,2.90
2022-09-03T06:00:41.041Z,3.92
2022-09-03T06:01:13.600Z,3.13
2022-09-03T06:01:50.950Z,3.95
2022-09-03T06:02:23.864Z,3.08
2022-09-03T06:02:55.498Z,2.78
2022-09-03T06:03:27.258Z,4.45
2022-09-03T06:03:59.851Z,3.28
2022-09-03T06:04:31.334Z,3.25
2022-09-03T06:05:04.924Z,2.50
2022-09-03T06:05:36.381Z,4.00
2022-09-03T06:06:08.054Z,2.75
2022-09-03T06:06:40.526Z,3.10
2022-09-03T06:07:12.005Z,3.83
2022-09-03T06:07:43.411Z,2.13
2022-09-03T06:08:14.752Z,2.50
2022-09-03T06:08:48.743Z,2.03
2022-09-03T06:09:20.823Z,3.67
2022-09-03T06:09:52.252Z,2.28
2022-09-03T06:10:26.910Z,2.08
2022-09-03T06:11:01.309Z,2.53
2022-09-03T06:11:34.100Z,2.25
2022-09-03T06:12:05.594Z,2.40
2022-09-03T06:12:37.037Z,1.90
2022-09-03T06:13:08.470Z,1.58
2022-09-03T06:13:40.009Z,1.85
2022-09-03T06:14:12.150Z,2.45
2022-09-03T06:14:43.585Z,3.05
2022-09-03T06:15:15.591Z,1.65
2022-09-03T06:15:46.988Z,1.10
2022-09-03T06:16:18.397Z,1.23
2022-09-03T06:16:58.803Z,1.27
2022-09-03T06:17:30.257Z,1.00
2022-09-03T06:18:01.645Z,1.83
2022-09-03T06:18:33.194Z,1.20
2022-09-03T06:19:05.275Z,1.50
2022-09-03T06:19:36.821Z,1.67
2022-09-03T06:20:08.590Z,1.25
2022-09-03T06:20:39.996Z,1.50
2022-09-03T06:21:11.406Z,1.60
2022-09-03T06:21:45.907Z,2.70
2022-09-03T06:22:17.288Z,1.35
2022-09-03T06:22:49.593Z,1.35
2022-09-03T06:23:21.032Z,4.57
2022-09-03T06:23:53.227Z,1.58
2022-09-03T06:24:26.397Z,1.27
2022-09-03T06:24:59.568Z,1.23
2022-09-03T06:25:30.936Z,1.23
2022-09-03T06:26:05.693Z,1.38
2022-09-03T06:26:37.849Z,3.00
2022-09-03T06:27:09.732Z,1.23
2022-09-03T06:27:41.118Z,1.80
2022-09-03T06:28:12.526Z,1.35
2022-09-03T06:28:44.264Z,1.00
2022-09-03T06:29:16.147Z,1.80
2022-09-03T06:29:47.546Z,1.50
2022-09-03T06:30:18.944Z,1.05
2022-09-03T06:30:50.352Z,2.60
2022-09-03T06:31:22.987Z,0.63
2022-09-03T06:31:54.590Z,1.30
2022-09-03T06:32:26.015Z,1.08
2022-09-03T06:32:57.456Z,1.27
2022-09-03T06:33:29.609Z,1.97
2022-09-03T06:34:04.168Z,1.13
2022-09-03T06:34:35.798Z,1.20
2022-09-03T06:35:07.655Z,1.48
2022-09-03T06:35:42.942Z,2.47
2022-09-03T06:36:15.908Z,1.40
2022-09-03T06:36:47.445Z,1.60
2022-09-03T06:37:18.887Z,1.30
2022-09-03T06:37:50.271Z,1.02
2022-09-03T06:38:21.742Z,1.23
2022-09-03T06:38:54.942Z,1.73
2022-09-03T06:39:26.431Z,1.80
2022-09-03T06:39:57.952Z,0.82
2022-09-03T06:40:29.455Z,1.77
2022-09-03T06:41:01.750Z,1.67
2022-09-03T06:41:33.255Z,0.93
2022-09-03T06:42:04.839Z,1.10
2022-09-03T06:42:36.277Z,0.85
2022-09-03T06:43:07.667Z,2.33
2022-09-03T06:43:40.318Z,1.30
2022-09-03T06:44:11.981Z,1.45
2022-09-03T06:44:43.665Z,2.90
2022-09-03T06:45:15.097Z,2.53
2022-09-03T06:46:00.062Z,3.05
2022-09-03T06:46:32.869Z,1.20
2022-09-03T06:47:04.443Z,1.38
2022-09-03T06:47:35.860Z,1.70
2022-09-03T06:48:07.290Z,2.67
2022-09-03T06:48:39.408Z,1.30
2022-09-03T06:49:11.505Z,2.75
2022-09-03T06:49:43.036Z,2.90
2022-09-03T06:50:14.479Z,2.93
2022-09-03T06:50:53.180Z,3.22
2022-09-03T06:51:26.249Z,2.65
2022-09-03T06:51:57.639Z,2.10
2022-09-03T06:52:29.237Z,2.03
2022-09-03T06:53:00.632Z,1.17
2022-09-03T06:53:33.235Z,1.70
2022-09-03T06:54:05.790Z,4.10
2022-09-03T06:54:37.173Z,2.20
2022-09-03T06:55:08.827Z,0.70
2022-09-03T06:55:40.215Z,0.80
2022-09-03T06:56:12.929Z,1.33
2022-09-03T06:56:44.360Z,0.65
2022-09-03T06:57:15.805Z,1.00
2022-09-03T06:57:47.264Z,1.83
2022-09-03T06:58:24.787Z,1.67
2022-09-03T06:58:57.434Z,2.45
2022-09-03T06:59:28.864Z,3.35
2022-09-03T07:00:00.314Z,1.45
2022-09-03T07:00:31.763Z,1.58
2022-09-03T07:01:04.472Z,2.13
2022-09-03T07:01:36.392Z,2.88
2022-09-03T07:02:07.938Z,2.03
2022-09-03T07:02:42.840Z,2.75
2022-09-03T07:03:16.207Z,2.22
2022-09-03T07:03:48.909Z,3.55
2022-09-03T07:04:20.574Z,4.20
2022-09-03T07:04:52.002Z,2.20
2022-09-03T07:05:25.745Z,2.42
2022-09-03T07:06:00.404Z,1.83
2022-09-03T07:06:33.162Z,1.77
2022-09-03T07:07:04.553Z,3.30
2022-09-03T07:07:35.956Z,0.93
2022-09-03T07:08:07.333Z,1.20
2022-09-03T07:08:38.824Z,0.95
2022-09-03T07:09:11.181Z,0.75
2022-09-03T07:09:46.403Z,0.70
2022-09-03T07:10:19.690Z,0.65
2022-09-03T07:10:51.078Z,1.08
2022-09-03T07:11:23.450Z,1.90
2022-09-03T07:11:54.850Z,1.80
2022-09-03T07:12:26.310Z,2.38
2022-09-03T07:12:57.702Z,1.20
2022-09-03T07:13:29.173Z,0.73
2022-09-03T07:14:00.621Z,1.20
2022-09-03T07:14:32.029Z,0.65
2022-09-03T07:15:04.508Z,1.17
2022-09-03T07:15:35.902Z,2.40
2022-09-03T07:16:11.658Z,0.50
2022-09-03T07:16:43.225Z,2.75
2022-09-03T07:17:14.723Z,0.30
2022-09-03T07:17:46.161Z,1.80
2022-09-03T07:18:17.594Z,0.90
2022-09-03T07:18:49.449Z,1.35
2022-09-03T07:19:20.880Z,1.20
2022-09-03T07:19:52.267Z,1.83
2022-09-03T07:20:23.701Z,3.03
2022-09-03T07:20:58.860Z,0.93
2022-09-03T07:21:31.496Z,1.45
2022-09-03T07:22:02.926Z,1.10
2022-09-03T07:22:34.306Z,1.88
2022-09-03T07:23:05.686Z,1.60
2022-09-03T07:23:37.735Z,1.40
2022-09-03T07:24:09.861Z,0.40
2022-09-03T07:24:41.297Z,1.10
2022-09-03T07:25:12.733Z,1.27
2022-09-03T07:25:44.121Z,2.13
2022-09-03T07:26:17.344Z,1.08
2022-09-03T07:26:49.162Z,1.20
2022-09-03T07:27:20.613Z,1.92
2022-09-03T07:27:52.126Z,1.73
2022-09-03T07:28:24.246Z,2.22
2022-09-03T07:28:56.082Z,1.58
2022-09-03T07:29:27.483Z,3.20
2022-09-03T07:29:58.855Z,2.60
2022-09-03T07:30:30.271Z,2.45
2022-09-03T07:31:03.210Z,2.33